createdAt,value
2023-03-19T00:01:54.261Z,3.70
2023-03-19T00:04:56.798Z,2.97
2023-03-19T00:08:00.787Z,4.00
2023-03-19T00:11:07.240Z,4.97
2023-03-19T00:14:09.928Z,3.83
2023-03-19T00:17:12.387Z,5.07
2023-03-19T00:20:16.071Z,4.23
2023-03-19T00:26:22.347Z,3.03
2023-03-19T00:29:24.958Z,5.07
2023-03-19T00:32:27.499Z,2.90
2023-03-19T00:35:29.999Z,3.50
2023-03-19T00:38:34.221Z,3.63
2023-03-19T00:41:37.027Z,3.93
2023-03-19T00:44:39.541Z,3.85
2023-03-19T00:47:42.146Z,4.30
2023-03-19T00:50:44.742Z,4.53
2023-03-19T00:53:48.671Z,4.97
2023-03-19T00:56:51.225Z,5.23
2023-03-19T00:59:53.766Z,6.30
2023-03-19T01:02:56.533Z,6.20
2023-03-19T01:05:59.406Z,6.07
2023-03-19T01:09:03.308Z,5.05
2023-03-19T01:12:06.553Z,5.10
2023-03-19T01:15:10.393Z,5.18
2023-03-19T01:18:13.325Z,3.80
2023-03-19T01:21:15.913Z,3.33
2023-03-19T01:24:19.828Z,4.70
2023-03-19T01:27:22.848Z,4.20
2023-03-19T01:30:25.357Z,4.75
2023-03-19T01:33:27.941Z,4.00
2023-03-19T01:36:30.605Z,3.40
2023-03-19T01:39:34.829Z,3.80
2023-03-19T01:42:52.416Z,4.10
2023-03-19T01:45:58.272Z,4.20
2023-03-19T01:49:01.999Z,3.80
2023-03-19T01:52:06.116Z,3.97
2023-03-19T01:55:10.635Z,2.60
2023-03-19T01:58:13.274Z,2.47
2023-03-19T02:01:15.930Z,1.42
2023-03-19T02:04:19.536Z,2.47
2023-03-19T02:10:26.397Z,1.43
2023-03-19T02:13:29.386Z,1.70
2023-03-19T02:16:32.120Z,2.05
2023-03-19T02:19:39.442Z,1.30
2023-03-19T02:22:44.762Z,1.93
2023-03-19T02:25:57.970Z,1.77
2023-03-19T02:29:00.549Z,2.10
2023-03-19T02:32:03.758Z,1.90
2023-03-19T02:35:06.961Z,2.22
2023-03-19T02:38:09.616Z,1.65
2023-03-19T02:41:13.685Z,1.50
2023-03-19T02:44:19.868Z,1.93
2023-03-19T02:47:22.477Z,1.90
2023-03-19T02:50:25.463Z,1.70
2023-03-19T02:53:28.113Z,1.80
2023-03-19T02:56:32.321Z,1.98
2023-03-19T02:59:34.886Z,1.70
2023-03-19T03:02:38.545Z,2.00
2023-03-19T03:08:43.375Z,2.20
2023-03-19T03:11:47.804Z,2.10
2023-03-19T03:14:50.348Z,1.80
2023-03-19T03:17:52.976Z,1.70
2023-03-19T03:20:55.700Z,2.00
2023-03-19T03:23:58.202Z,2.70
2023-03-19T03:27:02.160Z,1.83
2023-03-19T03:30:05.137Z,2.13
2023-03-19T03:33:08.496Z,2.25
2023-03-19T03:36:12.355Z,2.30
2023-03-19T03:39:14.986Z,2.20
2023-03-19T03:42:19.052Z,2.00
2023-03-19T03:45:21.693Z,1.90
2023-03-19T03:48:24.388Z,2.43
2023-03-19T03:51:27.018Z,2.65
2023-03-19T03:54:29.576Z,2.63
2023-03-19T03:57:33.448Z,2.57
2023-03-19T04:00:36.157Z,2.80
2023-03-19T04:03:38.828Z,2.70
2023-03-19T04:06:41.389Z,2.80
2023-03-19T04:09:44.120Z,2.90
2023-03-19T04:12:47.930Z,2.88
2023-03-19T04:15:50.498Z,3.00
2023-03-19T04:18:53.016Z,2.93
2023-03-19T04:21:55.631Z,3.40
2023-03-19T04:24:58.523Z,3.33
2023-03-19T04:28:03.657Z,4.10
2023-03-19T04:31:07.527Z,3.40
2023-03-19T04:34:10.356Z,3.70
2023-03-19T04:37:13.126Z,3.03
2023-03-19T04:40:16.761Z,2.95
2023-03-19T04:46:23.028Z,2.67
2023-03-19T04:49:25.975Z,3.30
2023-03-19T04:52:29.283Z,3.38
2023-03-19T04:55:32.433Z,3.63
2023-03-19T04:58:36.288Z,2.90
2023-03-19T05:01:39.028Z,3.23
2023-03-19T05:04:41.705Z,3.42
2023-03-19T05:07:44.269Z,3.37
2023-03-19T05:10:47.217Z,3.20
2023-03-19T05:13:51.088Z,3.40
2023-03-19T05:16:54.241Z,4.17
2023-03-19T05:19:57.029Z,3.70
2023-03-19T05:23:00.579Z,3.92
2023-03-19T05:26:03.146Z,3.15
2023-03-19T05:29:10.677Z,3.40
2023-03-19T05:32:13.659Z,3.33
2023-03-19T05:35:17.458Z,4.70
2023-03-19T05:38:20.087Z,3.50
2023-03-19T05:41:22.861Z,3.97
2023-03-19T05:44:27.183Z,3.92
2023-03-19T05:47:29.685Z,3.23
2023-03-19T05:50:33.426Z,3.00
2023-03-19T05:53:36.132Z,3.50
2023-03-19T05:56:38.720Z,3.93
2023-03-19T05:59:42.863Z,3.63
2023-03-19T06:02:45.807Z,3.70
2023-03-19T06:05:49.985Z,3.92
2023-03-19T06:08:53.013Z,3.60
2023-03-19T06:11:55.618Z,3.50
2023-03-19T06:14:59.459Z,4.20
2023-03-19T06:18:01.922Z,4.13
2023-03-19T06:21:05.260Z,3.50
2023-03-19T06:24:08.180Z,3.80
2023-03-19T06:27:10.851Z,3.80
2023-03-19T06:30:15.556Z,4.13
2023-03-19T06:33:18.396Z,3.93
2023-03-19T06:36:20.911Z,3.50
2023-03-19T06:39:23.520Z,3.40
2023-03-19T06:42:27.025Z,3.63
2023-03-19T06:45:30.945Z,2.80
2023-03-19T06:48:33.719Z,3.70
2023-03-19T06:51:36.170Z,3.25
2023-03-19T06:54:38.700Z,3.47
2023-03-19T06:57:41.368Z,3.50
2023-03-19T07:00:45.333Z,3.15
2023-03-19T07:03:47.923Z,3.40
2023-03-19T07:06:50.466Z,3.27
2023-03-19T07:09:53.247Z,3.70
2023-03-19T07:12:55.932Z,3.97
2023-03-19T07:15:59.924Z,3.20
2023-03-19T07:19:02.416Z,3.20
2023-03-19T07:22:05.208Z,3.30
2023-03-19T07:25:08.781Z,2.88
2023-03-19T07:31:16.833Z,3.03
2023-03-19T07:34:19.430Z,3.63
2023-03-19T07:37:22.656Z,3.83
2023-03-19T07:40:25.605Z,3.10
2023-03-19T07:43:28.068Z,3.10
2023-03-19T07:46:32.014Z,3.40
2023-03-19T07:49:34.514Z,3.23
2023-03-19T07:52:37.115Z,2.63
2023-03-19T07:55:39.712Z,3.30
2023-03-19T07:58:42.300Z,3.60
2023-03-19T08:01:46.108Z,3.83
2023-03-19T08:04:48.684Z,3.30
2023-03-19T08:07:51.654Z,2.73
2023-03-19T08:10:54.783Z,2.75
2023-03-19T08:13:57.325Z,3.00
2023-03-19T08:17:01.569Z,2.93
2023-03-19T08:20:04.600Z,2.57
2023-03-19T08:23:07.296Z,2.67
2023-03-19T08:26:09.906Z,2.63
2023-03-19T08:29:12.623Z,2.60
2023-03-19T08:32:16.917Z,3.25
2023-03-19T08:35:20.208Z,3.00
2023-03-19T08:38:22.703Z,2.90
2023-03-19T08:41:26.093Z,1.77
2023-03-19T08:44:28.864Z,2.05
2023-03-19T08:47:32.840Z,2.42
2023-03-19T08:50:35.967Z,1.53
2023-03-19T08:53:39.891Z,1.48
2023-03-19T08:56:42.400Z,1.57
2023-03-19T08:59:45.561Z,2.30
2023-03-19T09:02:49.513Z,2.30
2023-03-19T09:05:52.122Z,2.30
2023-03-19T09:08:54.660Z,1.63
2023-03-19T09:11:57.414Z,1.57
2023-03-19T09:14:59.932Z,1.45
2023-03-19T09:18:04.048Z,1.90
2023-03-19T09:21:06.938Z,1.50
2023-03-19T09:24:09.751Z,1.90
2023-03-19T09:27:12.592Z,1.25
2023-03-19T09:30:15.601Z,1.65
2023-03-19T09:33:21.345Z,1.60
2023-03-19T09:36:23.930Z,1.70
2023-03-19T09:39:26.584Z,2.00
2023-03-19T09:42:43.109Z,1.60
2023-03-19T09:45:46.782Z,1.63
2023-03-19T09:48:53.838Z,1.50
2023-03-19T09:51:58.117Z,1.57
2023-03-19T09:55:04.522Z,2.40
2023-03-19T09:58:13.852Z,1.70
2023-03-19T10:01:25.696Z,2.27
2023-03-19T10:04:40.506Z,1.50
2023-03-19T10:07:51.681Z,1.70
2023-03-19T10:11:04.730Z,1.60
2023-03-19T10:14:22.168Z,1.83
2023-03-19T10:17:30.227Z,1.87
2023-03-19T10:20:40.988Z,1.40
2023-03-19T10:23:46.680Z,1.67
2023-03-19T10:26:49.527Z,1.60
2023-03-19T10:29:52.172Z,1.33
2023-03-19T10:33:00.764Z,1.50
2023-03-19T10:36:07.133Z,2.53
2023-03-19T10:39:09.956Z,2.07
2023-03-19T10:42:33.339Z,2.22
2023-03-19T10:45:38.860Z,1.52
2023-03-19T10:48:44.486Z,1.60
2023-03-19T10:51:49.150Z,1.60
2023-03-19T10:54:55.887Z,1.30
2023-03-19T10:58:04.635Z,1.40
2023-03-19T11:01:10.021Z,1.50
2023-03-19T11:04:15.365Z,1.20
2023-03-19T11:07:21.617Z,0.97
2023-03-19T11:10:25.593Z,1.20
2023-03-19T11:13:28.474Z,0.90
2023-03-19T11:16:31.176Z,1.40
2023-03-19T11:19:35.509Z,1.42
2023-03-19T11:22:39.993Z,1.20
2023-03-19T11:25:43.557Z,1.30
2023-03-19T11:28:51.698Z,1.17
2023-03-19T11:32:08.649Z,1.20
2023-03-19T11:35:22.024Z,1.13
2023-03-19T11:38:32.836Z,1.20
2023-03-19T11:41:48.360Z,1.17
2023-03-19T11:44:58.368Z,1.10
2023-03-19T11:48:10.187Z,1.17
2023-03-19T11:51:18.992Z,1.10
2023-03-19T11:54:28.857Z,15.27
2023-03-19T11:57:48.866Z,1.23
2023-03-19T12:00:52.710Z,1.10
2023-03-19T12:04:28.922Z,1.13
2023-03-19T12:07:34.924Z,1.10
2023-03-19T12:10:46.398Z,1.40
2023-03-19T12:14:02.691Z,1.43
2023-03-19T12:17:16.977Z,1.00
2023-03-19T12:20:43.336Z,1.00
2023-03-19T12:23:58.967Z,1.07
2023-03-19T12:27:12.494Z,1.43
2023-03-19T12:30:32.005Z,1.40
2023-03-19T12:33:41.169Z,1.20
2023-03-19T12:36:49.955Z,1.40
2023-03-19T12:39:59.682Z,1.37
2023-03-19T12:43:06.728Z,1.10
2023-03-19T12:46:13.229Z,1.67
2023-03-19T12:49:18.106Z,1.60
2023-03-19T12:52:23.583Z,1.27
2023-03-19T12:55:36.319Z,1.17
2023-03-19T12:58:49.806Z,1.30
2023-03-19T13:04:57.943Z,1.10
2023-03-19T13:08:05.205Z,1.30
2023-03-19T13:11:14.929Z,1.20
2023-03-19T13:14:23.474Z,1.20
2023-03-19T13:17:31.008Z,1.00
2023-03-19T13:20:47.734Z,1.27
2023-03-19T13:23:52.862Z,1.43
2023-03-19T13:26:56.654Z,1.97
2023-03-19T13:30:17.715Z,1.73
2023-03-19T13:33:24.533Z,1.63
2023-03-19T13:36:28.623Z,1.60
2023-03-19T13:39:33.291Z,1.60
2023-03-19T13:42:39.940Z,1.30
2023-03-19T13:45:43.847Z,1.30
2023-03-19T13:48:52.555Z,1.63
2023-03-19T13:51:56.368Z,1.37
2023-03-19T13:55:27.990Z,1.37
2023-03-19T13:58:48.693Z,1.07
2023-03-19T14:01:52.587Z,1.23
2023-03-19T14:04:59.755Z,1.30
2023-03-19T14:08:02.311Z,1.50
2023-03-19T14:11:06.702Z,0.90
2023-03-19T14:14:14.571Z,1.13
2023-03-19T14:17:23.314Z,1.07
2023-03-19T14:20:35.393Z,1.40
2023-03-19T14:23:46.736Z,1.13
2023-03-19T14:26:49.892Z,1.53
2023-03-19T14:29:53.324Z,1.60
2023-03-19T14:36:04.582Z,1.50
2023-03-19T14:39:10.639Z,1.47
2023-03-19T14:42:18.450Z,1.30
2023-03-19T14:45:32.714Z,1.50
2023-03-19T14:49:02.898Z,1.10
2023-03-19T14:52:07.578Z,1.33
2023-03-19T14:55:13.959Z,1.63
2023-03-19T14:58:16.536Z,1.60
2023-03-19T15:01:19.768Z,1.10
2023-03-19T15:04:25.454Z,2.28
2023-03-19T15:07:31.463Z,1.40
2023-03-19T15:10:37.994Z,1.63
2023-03-19T15:13:49.598Z,1.33
2023-03-19T15:16:57.671Z,1.50
2023-03-19T15:20:03.015Z,1.40
2023-03-19T15:23:19.853Z,1.40
2023-03-19T15:26:31.589Z,0.97
2023-03-19T15:29:37.852Z,1.30
2023-03-19T15:32:54.305Z,0.93
2023-03-19T15:36:09.871Z,1.20
2023-03-19T15:39:13.006Z,1.50
2023-03-19T15:42:17.915Z,1.10
2023-03-19T15:45:23.870Z,1.40
2023-03-19T15:48:29.167Z,1.67
2023-03-19T15:51:33.391Z,1.87
2023-03-19T15:54:35.962Z,1.70
2023-03-19T15:57:39.929Z,1.50
2023-03-19T16:00:42.978Z,1.90
2023-03-19T16:03:47.019Z,1.58
2023-03-19T16:06:52.627Z,1.50
2023-03-19T16:09:55.347Z,1.30
2023-03-19T16:12:57.982Z,1.38
2023-03-19T16:16:06.790Z,1.55
2023-03-19T16:19:29.092Z,1.50
2023-03-19T16:22:34.023Z,1.50
2023-03-19T16:25:36.787Z,1.50
2023-03-19T16:28:45.230Z,2.55
2023-03-19T16:31:52.367Z,1.60
2023-03-19T16:34:56.086Z,2.13
2023-03-19T16:38:14.436Z,4.20
2023-03-19T16:41:18.838Z,2.17
2023-03-19T16:44:30.220Z,2.00
2023-03-19T16:47:34.067Z,2.07
2023-03-19T16:50:38.297Z,1.83
2023-03-19T16:53:42.456Z,3.40
2023-03-19T16:56:44.943Z,2.43
2023-03-19T16:59:47.905Z,2.37
2023-03-19T17:02:50.434Z,4.38
2023-03-19T17:05:53.233Z,2.53
2023-03-19T17:08:57.201Z,2.58
2023-03-19T17:12:01.368Z,2.47
2023-03-19T17:15:04.167Z,2.40
2023-03-19T17:18:13.558Z,1.75
2023-03-19T17:21:18.383Z,2.10
2023-03-19T17:24:27.285Z,2.20
2023-03-19T17:27:30.011Z,2.30
2023-03-19T17:30:32.889Z,2.20
2023-03-19T17:33:35.842Z,2.25
2023-03-19T17:36:38.424Z,2.17
2023-03-19T17:39:43.276Z,2.77
2023-03-19T17:42:45.920Z,2.43
2023-03-19T17:45:49.299Z,3.10
2023-03-19T17:48:52.793Z,2.28
2023-03-19T17:51:56.005Z,2.00
2023-03-19T17:55:00.822Z,2.47
2023-03-19T17:58:03.460Z,1.50
2023-03-19T18:01:12.906Z,2.80
2023-03-19T18:04:17.044Z,2.00
2023-03-19T18:07:19.626Z,1.90
2023-03-19T18:10:26.639Z,2.63
2023-03-19T18:13:29.291Z,2.90
2023-03-19T18:16:33.074Z,2.87
2023-03-19T18:19:37.430Z,2.40
2023-03-19T18:22:40.063Z,1.70
2023-03-19T18:25:44.946Z,1.67
2023-03-19T18:28:47.446Z,11.90
2023-03-19T18:31:51.270Z,6.80
2023-03-19T18:34:53.777Z,3.67
2023-03-19T18:37:56.637Z,2.53
2023-03-19T18:41:00.629Z,1.42
2023-03-19T18:44:03.612Z,1.77
2023-03-19T18:47:07.317Z,2.00
2023-03-19T18:53:17.856Z,1.67
2023-03-19T18:56:23.767Z,1.95
2023-03-19T18:59:27.742Z,1.77
2023-03-19T19:02:33.359Z,2.30
2023-03-19T19:05:36.316Z,2.00
2023-03-19T19:08:38.776Z,2.30
2023-03-19T19:11:45.685Z,3.10
2023-03-19T19:14:48.504Z,2.23
2023-03-19T19:17:51.835Z,2.55
2023-03-19T19:20:54.882Z,2.03
2023-03-19T19:23:57.482Z,1.95
2023-03-19T19:27:01.559Z,1.67
2023-03-19T19:30:04.644Z,2.13
2023-03-19T19:33:07.347Z,1.77
2023-03-19T19:36:11.660Z,1.87
2023-03-19T19:39:14.251Z,5.50
2023-03-19T19:42:19.844Z,2.80
2023-03-19T19:45:30.140Z,1.80
2023-03-19T19:48:32.610Z,1.40
2023-03-19T19:51:35.311Z,1.57
2023-03-19T19:54:39.857Z,1.38
2023-03-19T19:57:44.411Z,1.27
2023-03-19T20:01:00.149Z,1.23
2023-03-19T20:04:06.174Z,1.47
2023-03-19T20:10:12.901Z,1.67
2023-03-19T20:13:24.833Z,1.60
2023-03-19T20:16:27.723Z,1.30
2023-03-19T20:19:30.448Z,1.10
2023-03-19T20:22:33.423Z,1.40
2023-03-19T20:25:37.616Z,1.88
2023-03-19T20:28:42.652Z,1.90
2023-03-19T20:31:46.271Z,2.07
2023-03-19T20:37:52.918Z,1.90
2023-03-19T20:40:57.103Z,1.70
2023-03-19T20:44:02.713Z,2.37
2023-03-19T20:47:06.953Z,2.13
2023-03-19T20:50:17.550Z,2.10
2023-03-19T20:53:20.390Z,2.70
2023-03-19T20:56:24.541Z,3.50
2023-03-19T20:59:28.935Z,3.87
2023-03-19T21:02:32.227Z,3.13
2023-03-19T21:05:37.152Z,3.05
2023-03-19T21:08:41.814Z,3.00
2023-03-19T21:11:44.769Z,2.97
2023-03-19T21:14:48.612Z,3.15
2023-03-19T21:17:51.538Z,2.60
2023-03-19T21:20:55.493Z,3.63
2023-03-19T21:23:59.935Z,2.77
2023-03-19T21:27:04.084Z,2.37
2023-03-19T21:30:11.756Z,3.07
2023-03-19T21:33:22.301Z,3.00
2023-03-19T21:36:24.941Z,3.63
2023-03-19T21:39:27.488Z,3.37
2023-03-19T21:42:31.775Z,3.10
2023-03-19T21:45:36.514Z,3.57
2023-03-19T21:48:39.840Z,3.00
2023-03-19T21:51:43.661Z,3.63
2023-03-19T21:54:46.447Z,3.33
2023-03-19T21:57:49.076Z,4.38
2023-03-19T22:00:53.210Z,4.05
2023-03-19T22:03:57.243Z,4.00
2023-03-19T22:06:59.906Z,4.30
2023-03-19T22:10:02.625Z,4.30
2023-03-19T22:13:06.142Z,4.07
2023-03-19T22:16:18.265Z,3.72
2023-03-19T22:19:21.507Z,4.50
2023-03-19T22:22:24.058Z,3.67
2023-03-19T22:25:30.022Z,4.33
2023-03-19T22:28:34.366Z,4.93
2023-03-19T22:31:38.554Z,5.17
2023-03-19T22:34:41.199Z,4.13
2023-03-19T22:37:43.955Z,4.27
2023-03-19T22:40:48.284Z,4.97
2023-03-19T22:43:51.344Z,4.10
2023-03-19T22:46:55.899Z,4.57
2023-03-19T22:49:58.484Z,4.70
2023-03-19T22:53:01.048Z,5.13
2023-03-19T22:56:04.612Z,5.07
2023-03-19T22:59:07.145Z,4.85
2023-03-19T23:02:14.837Z,5.40
2023-03-19T23:05:29.673Z,4.87
2023-03-19T23:08:32.398Z,4.70
2023-03-19T23:11:34.895Z,3.97
2023-03-19T23:14:37.995Z,3.97
2023-03-19T23:17:42.366Z,3.80
2023-03-19T23:20:46.362Z,3.80
2023-03-19T23:23:49.637Z,3.97
2023-03-19T23:26:54.055Z,4.18
2023-03-19T23:29:56.588Z,3.43
2023-03-19T23:33:02.665Z,3.67
2023-03-19T23:36:05.910Z,3.83
2023-03-19T23:39:09.369Z,3.10
2023-03-19T23:42:14.068Z,2.10
2023-03-19T23:45:23.378Z,2.47
2023-03-19T23:48:32.318Z,2.20
2023-03-19T23:51:34.919Z,2.37
2023-03-19T23:54:38.790Z,2.23
2023-03-19T23:57:41.773Z,2.60
